Česky Dansk Deutsch English Español Suomi Français Magyar Italiano Nederlands norsk Polski Português svenska Türkçe

 

Het Weer

Sivas (Turkije)

03:50, 21 augustus 2016 (GMT)

NWNNE
WE
SWSSE
Home            
Sivas Tokat Kayseri / Erkilet Samsun / Carsamba Merzifon Malatya / Erhac Samsun Erzincan Elazig Nevsehir Trabzon Gaziantep Urfa Adana / Incirlik Adana / Sakirpasa Diyarbakir Ankara / Esenboga Iskenderun Erzurum Ankara / Guvercin Lik Ankara / Etimesgut Murted Tur-Afb Aleppo International Airport

Om een weerknop op uw website of weblog te plaatsen, copieer onderstaande code en plak die in uw pagina. In het eerste vakje staat HTML-code, in het tweede vakje UBB-code.


Add to Google

Details

Wind speed:1 bf, 3 kn, 1.5 m/s, 3.5 miles/h, 5.6 km/h
Wind direction:E, 080° - SSW, 200°
Visibility:Suurempi kuin 10000 m, 10 km, 32800 ft, 6.2 miles
Clouds:Muutamia pilviä at 4000 ft, 1219 m
Lämpötila:17°C, 63°F
Kastepisteen:10°C, 50°F
Ilmanpaine:1019 hPa, 764.3 mmHg, 30.09 inHg, 1.006 atm
Suhteellinen kosteus:63.4 %
METAR:LTAR 210350Z 13003KT 080V200 9999 FEW040 17/10 Q1019

Snelkoppelingen

Actuele weersinformatie van de hele wereld. Voeg locaties toe met het plus (+) symbool. Deze snelkoppelingen kunnen worden toegevoegd aan Google.

Lid van de Technetium groep

website free tracking
StatCounter NetStat W3C Validator

09-08-2022 09:46:36
astro.technetium.be money.technetium.be phote.technetium.be tafeltennistafel.technetium.be www.ligfiets.net